Time;durP1;ratioP1;P1;durP2;ratioP2;P2;SDS_P1;SDS_P2;PMS_P1;PMS_P2;Temp;Humidity;BMP_temperature;BMP_pressure;BME280_temperature;BME280_humidity;BME280_pressure;Samples;Min_cycle;Max_cycle;Signal;HPM_P1;HPM_P2
2021/07/25 00:00:05;;;;;;;9.32;7.60;;;;;;;;;;5034959;28;20017;-77
2021/07/25 00:02:34;;;;;;;8.48;7.57;;;;;;;;;;5034202;28;20108;-77
2021/07/25 00:05:00;;;;;;;10.07;8.00;;;;;;;;;;5034737;28;20063;-78
2021/07/25 00:07:28;;;;;;;11.45;7.47;;;;;;;;;;5034808;28;20053;-78
2021/07/25 00:09:53;;;;;;;8.68;7.72;;;;;;;;;;5033701;28;20099;-77
2021/07/25 00:12:18;;;;;;;9.37;7.60;;;;;;;;;;5014763;28;20034;-77
2021/07/25 00:14:46;;;;;;;8.77;6.63;;;;;;;;;;5014377;28;20280;-78
2021/07/25 00:17:11;;;;;;;9.73;7.50;;;;;;;;;;5014557;28;20029;-78
2021/07/25 00:19:39;;;;;;;10.93;7.22;;;;;;;;;;5012808;28;20022;-77
2021/07/25 00:22:05;;;;;;;9.38;6.40;;;;;;;;;;5014259;28;20014;-78
2021/07/25 00:24:32;;;;;;;10.40;6.93;;;;;;;;;;5013004;28;20091;-78
2021/07/25 00:27:00;;;;;;;11.40;7.70;;;;;;;;;;5014378;28;20029;-77
2021/07/25 00:29:25;;;;;;;7.78;6.97;;;;;;;;;;5018267;28;20481;-77
2021/07/25 00:31:51;;;;;;;10.60;7.72;;;;;;;;;;5033895;28;20029;-77
2021/07/25 00:34:16;;;;;;;9.57;7.70;;;;;;;;;;5030608;28;20383;-78
2021/07/25 00:36:41;;;;;;;11.13;7.80;;;;;;;;;;5033951;28;20029;-77
2021/07/25 00:39:10;;;;;;;10.50;7.77;;;;;;;;;;5033764;28;20052;-78
2021/07/25 00:41:36;;;;;;;10.02;7.20;;;;;;;;;;5032919;28;20351;-78
2021/07/25 00:44:01;;;;;;;7.97;7.13;;;;;;;;;;5032713;28;20115;-77
2021/07/25 00:46:26;;;;;;;9.90;7.27;;;;;;;;;;5021202;28;20026;-77
2021/07/25 00:48:55;;;;;;;9.43;7.50;;;;;;;;;;5013384;28;20284;-78
2021/07/25 00:51:22;;;;;;;11.98;8.05;;;;;;;;;;5031307;28;20283;-78
2021/07/25 00:53:49;;;;;;;11.13;9.07;;;;;;;;;;5032573;28;20048;-77
2021/07/25 00:56:15;;;;;;;12.45;8.63;;;;;;;;;;5019736;28;20064;-77
2021/07/25 00:58:41;;;;;;;11.07;8.55;;;;;;;;;;5024345;28;20375;-77
2021/07/25 01:01:07;;;;;;;11.30;9.93;;;;;;;;;;5032952;28;20020;-77
2021/07/25 01:03:54;;;;;;;11.98;9.10;;;;;;;;;;5033399;28;20064;-77
2021/07/25 01:06:46;;;;;;;13.52;9.18;;;;;;;;;;5036078;28;20112;-77
2021/07/25 01:09:35;;;;;;;11.15;10.07;;;;;;;;;;5033504;28;20060;-77
2021/07/25 01:12:04;;;;;;;13.00;9.90;;;;;;;;;;5027133;28;20041;-77
2021/07/25 01:14:31;;;;;;;10.48;9.40;;;;;;;;;;5020164;28;20430;-77
2021/07/25 01:17:15;;;;;;;11.60;10.55;;;;;;;;;;5032305;28;20052;-77
2021/07/25 01:19:40;;;;;;;13.90;10.85;;;;;;;;;;5012833;28;20026;-78
2021/07/25 01:22:05;;;;;;;14.47;11.70;;;;;;;;;;5013246;28;20029;-77
2021/07/25 01:24:31;;;;;;;12.95;11.50;;;;;;;;;;5032242;28;20296;-78
2021/07/25 01:27:00;;;;;;;15.63;11.43;;;;;;;;;;5030032;28;20040;-77
2021/07/25 01:29:27;;;;;;;12.65;11.23;;;;;;;;;;5031810;28;20738;-78
2021/07/25 01:31:52;;;;;;;14.48;11.98;;;;;;;;;;5032431;28;20049;-78
2021/07/25 01:34:17;;;;;;;16.63;12.37;;;;;;;;;;5014661;28;20117;-77
2021/07/25 01:36:43;;;;;;;15.35;12.43;;;;;;;;;;5029170;28;20283;-77
2021/07/25 01:39:08;;;;;;;19.02;12.93;;;;;;;;;;5015549;28;20108;-77
2021/07/25 01:41:41;;;;;;;14.63;12.83;;;;;;;;;;5012555;28;20030;-77
2021/07/25 01:44:06;;;;;;;15.60;12.75;;;;;;;;;;5016033;28;20276;-77
2021/07/25 01:46:32;;;;;;;14.57;13.05;;;;;;;;;;5013162;28;20041;-77
2021/07/25 01:48:57;;;;;;;15.65;13.70;;;;;;;;;;5018592;28;20018;-77
2021/07/25 01:51:25;;;;;;;22.90;14.13;;;;;;;;;;5028446;28;20057;-77
2021/07/25 01:53:52;;;;;;;19.83;13.48;;;;;;;;;;5030912;28;20276;-78
2021/07/25 01:56:20;;;;;;;17.60;13.77;;;;;;;;;;5031585;28;20021;-77
2021/07/25 01:58:45;;;;;;;15.30;13.55;;;;;;;;;;5031137;28;20067;-77
2021/07/25 02:01:10;;;;;;;17.60;14.02;;;;;;;;;;5032921;28;20029;-77
2021/07/25 02:03:37;;;;;;;17.70;14.70;;;;;;;;;;5032806;28;20079;-77
2021/07/25 02:06:02;;;;;;;18.45;14.63;;;;;;;;;;5032985;28;20028;-77
2021/07/25 02:08:30;;;;;;;15.68;13.93;;;;;;;;;;5024450;28;20384;-77
2021/07/25 02:10:55;;;;;;;16.30;13.88;;;;;;;;;;5016454;28;20026;-77
2021/07/25 02:13:21;;;;;;;15.07;13.57;;;;;;;;;;5016387;28;20017;-77
2021/07/25 02:15:49;;;;;;;15.85;14.25;;;;;;;;;;5016699;28;20276;-77
2021/07/25 02:18:14;;;;;;;16.55;14.68;;;;;;;;;;5016739;28;20041;-77
2021/07/25 02:20:41;;;;;;;17.33;15.13;;;;;;;;;;5016867;28;20429;-77
2021/07/25 02:23:11;;;;;;;20.75;15.25;;;;;;;;;;5016171;28;20022;-78
2021/07/25 02:25:38;;;;;;;19.13;16.00;;;;;;;;;;5033461;28;20364;-77
2021/07/25 02:28:06;;;;;;;17.23;15.48;;;;;;;;;;5035959;28;20092;-77
2021/07/25 02:30:31;;;;;;;19.48;15.75;;;;;;;;;;5035365;28;20060;-77
2021/07/25 02:32:59;;;;;;;17.33;15.52;;;;;;;;;;5035939;28;20017;-77
2021/07/25 02:35:24;;;;;;;17.88;15.43;;;;;;;;;;5021091;28;20046;-77
2021/07/25 02:37:49;;;;;;;20.33;15.23;;;;;;;;;;5015816;28;20014;-77
2021/07/25 02:40:14;;;;;;;16.52;14.75;;;;;;;;;;5027845;28;20341;-77
2021/07/25 02:42:40;;;;;;;19.00;14.88;;;;;;;;;;5035871;28;20083;-77
2021/07/25 02:45:05;;;;;;;14.77;13.25;;;;;;;;;;5034653;28;20021;-78
2021/07/25 02:47:30;;;;;;;18.38;13.82;;;;;;;;;;5036214;28;20029;-78
2021/07/25 02:49:58;;;;;;;18.23;13.47;;;;;;;;;;5035823;28;20025;-77
2021/07/25 02:52:25;;;;;;;17.17;13.98;;;;;;;;;;5035981;28;20264;-77
2021/07/25 02:54:53;;;;;;;15.27;13.43;;;;;;;;;;5017497;28;20511;-77
2021/07/25 02:57:18;;;;;;;17.65;14.10;;;;;;;;;;5015818;28;20025;-77
2021/07/25 02:59:43;;;;;;;19.50;14.85;;;;;;;;;;5030302;28;20036;-77
2021/07/25 03:02:11;;;;;;;16.45;14.27;;;;;;;;;;5034594;28;20017;-77
2021/07/25 03:04:36;;;;;;;18.42;14.48;;;;;;;;;;5035652;28;20017;-78
2021/07/25 03:07:06;;;;;;;18.77;13.93;;;;;;;;;;5032418;28;20017;-77
2021/07/25 03:09:31;;;;;;;14.40;12.93;;;;;;;;;;5014648;28;20025;-77
2021/07/25 03:11:57;;;;;;;15.20;12.63;;;;;;;;;;5014180;28;20025;-77
2021/07/25 03:14:22;;;;;;;17.67;13.93;;;;;;;;;;5021137;28;20291;-77
2021/07/25 03:16:52;;;;;;;15.20;13.60;;;;;;;;;;5033493;28;20271;-77
2021/07/25 03:19:19;;;;;;;15.65;13.70;;;;;;;;;;5028996;28;20284;-77
2021/07/25 03:21:47;;;;;;;16.77;14.98;;;;;;;;;;5034598;28;20037;-78
2021/07/25 03:24:14;;;;;;;20.95;15.35;;;;;;;;;;5029959;28;20033;-77
2021/07/25 03:26:44;;;;;;;17.88;15.98;;;;;;;;;;5014130;28;20022;-77
2021/07/25 03:29:10;;;;;;;20.10;15.65;;;;;;;;;;5014523;28;20022;-77
2021/07/25 03:31:35;;;;;;;19.45;16.23;;;;;;;;;;5014974;28;20052;-77
2021/07/25 03:34:05;;;;;;;18.35;15.82;;;;;;;;;;5014698;28;20045;-77
2021/07/25 03:36:30;;;;;;;21.63;16.17;;;;;;;;;;5015434;28;20102;-77
2021/07/25 03:38:56;;;;;;;20.42;16.98;;;;;;;;;;5023365;28;20479;-77
2021/07/25 03:41:24;;;;;;;21.80;16.77;;;;;;;;;;5034143;28;20092;-77
2021/07/25 03:43:51;;;;;;;18.40;16.42;;;;;;;;;;5034615;28;20029;-77
2021/07/25 03:46:17;;;;;;;19.83;16.73;;;;;;;;;;5032656;28;20109;-77
2021/07/25 03:48:43;;;;;;;17.02;15.10;;;;;;;;;;5033565;28;20468;-76
2021/07/25 03:51:12;;;;;;;17.50;15.52;;;;;;;;;;5034216;28;20021;-80
2021/07/25 03:53:39;;;;;;;20.02;15.38;;;;;;;;;;5033565;28;20115;-79
2021/07/25 03:56:04;;;;;;;23.20;16.42;;;;;;;;;;5021196;28;20124;-80
2021/07/25 03:58:30;;;;;;;19.60;15.38;;;;;;;;;;5014486;28;20440;-79
2021/07/25 04:00:55;;;;;;;18.53;16.47;;;;;;;;;;5014413;28;20029;-76
2021/07/25 04:03:22;;;;;;;23.13;16.63;;;;;;;;;;5014362;28;20249;-76
2021/07/25 04:05:48;;;;;;;22.15;18.70;;;;;;;;;;5021851;28;20036;-77
2021/07/25 04:08:15;;;;;;;20.45;18.25;;;;;;;;;;5034097;28;20026;-78
2021/07/25 04:10:43;;;;;;;20.70;18.25;;;;;;;;;;5033819;28;20021;-77
2021/07/25 04:13:09;;;;;;;20.65;18.42;;;;;;;;;;5034012;28;20108;-79
2021/07/25 04:15:37;;;;;;;25.00;18.88;;;;;;;;;;5033659;28;20104;-77
2021/07/25 04:18:02;;;;;;;23.33;19.63;;;;;;;;;;5034029;28;20025;-78
2021/07/25 04:20:27;;;;;;;21.45;18.77;;;;;;;;;;5033414;28;20467;-78
2021/07/25 04:22:52;;;;;;;21.77;19.13;;;;;;;;;;5034073;28;20329;-78
2021/07/25 04:25:18;;;;;;;20.60;17.83;;;;;;;;;;5033297;28;20252;-78
2021/07/25 04:27:43;;;;;;;24.47;19.93;;;;;;;;;;5032962;28;20256;-77
2021/07/25 04:30:08;;;;;;;21.95;19.27;;;;;;;;;;5033134;28;20264;-77
2021/07/25 04:32:34;;;;;;;23.73;18.13;;;;;;;;;;5033054;28;20107;-80
2021/07/25 04:35:00;;;;;;;24.95;19.92;;;;;;;;;;5033285;28;20077;-81
2021/07/25 04:37:28;;;;;;;25.30;18.95;;;;;;;;;;5032745;28;20434;-81
2021/07/25 04:39:53;;;;;;;20.95;18.52;;;;;;;;;;5033646;28;20104;-81
2021/07/25 04:42:23;;;;;;;21.25;19.00;;;;;;;;;;5013342;28;20105;-82
2021/07/25 04:45:01;;;;;;;23.52;18.88;;;;;;;;;;5014013;28;20026;-82
2021/07/25 04:47:33;;;;;;;20.13;17.60;;;;;;;;;;5014110;28;20065;-82
2021/07/25 04:50:05;;;;;;;21.27;18.25;;;;;;;;;;5022438;28;20463;-81
2021/07/25 04:52:37;;;;;;;25.35;18.02;;;;;;;;;;5033158;28;20030;-81
2021/07/25 04:55:02;;;;;;;19.98;17.88;;;;;;;;;;5032346;28;20021;-81
2021/07/25 04:57:33;;;;;;;21.92;17.02;;;;;;;;;;5033396;28;20029;-81
2021/07/25 04:59:58;;;;;;;19.42;16.23;;;;;;;;;;5032601;28;20045;-82
2021/07/25 05:02:25;;;;;;;18.42;16.45;;;;;;;;;;5014065;28;20050;-82
2021/07/25 05:04:54;;;;;;;23.30;16.17;;;;;;;;;;5013248;28;20053;-82
2021/07/25 05:07:19;;;;;;;18.67;15.80;;;;;;;;;;5012695;28;20041;-82
2021/07/25 05:09:45;;;;;;;19.15;16.00;;;;;;;;;;5013325;28;20030;-82
2021/07/25 05:12:26;;;;;;;19.27;16.00;;;;;;;;;;5020078;28;20052;-81
2021/07/25 05:15:05;;;;;;;22.38;16.60;;;;;;;;;;5033065;28;20033;-81
2021/07/25 05:17:47;;;;;;;19.15;16.10;;;;;;;;;;5033148;28;20025;-81
2021/07/25 05:20:16;;;;;;;17.55;15.25;;;;;;;;;;5032607;28;20551;-81
2021/07/25 05:22:50;;;;;;;20.67;15.38;;;;;;;;;;5036095;28;20026;-82
2021/07/25 05:25:17;;;;;;;17.33;14.65;;;;;;;;;;5020474;28;20034;-83
2021/07/25 05:27:44;;;;;;;15.80;14.15;;;;;;;;;;5028819;28;20041;-83
2021/07/25 05:30:13;;;;;;;19.58;14.35;;;;;;;;;;5035018;28;20044;-82
2021/07/25 05:32:43;;;;;;;19.45;12.70;;;;;;;;;;5028936;28;20040;-83
2021/07/25 05:35:08;;;;;;;14.75;12.50;;;;;;;;;;5027005;28;20062;-83
2021/07/25 05:37:34;;;;;;;13.82;12.23;;;;;;;;;;5024509;28;20042;-81
2021/07/25 05:39:59;;;;;;;14.13;11.77;;;;;;;;;;5019104;28;20022;-81
2021/07/25 05:42:24;;;;;;;15.38;10.93;;;;;;;;;;5032761;28;20032;-81
2021/07/25 05:44:50;;;;;;;14.02;10.63;;;;;;;;;;5043187;28;20025;-81
2021/07/25 05:47:15;;;;;;;13.57;10.80;;;;;;;;;;5042136;28;20032;-82
2021/07/25 05:49:40;;;;;;;13.65;10.93;;;;;;;;;;5023521;28;20025;-82
2021/07/25 05:52:06;;;;;;;13.98;10.32;;;;;;;;;;5023694;28;20017;-82
2021/07/25 05:54:31;;;;;;;11.32;10.13;;;;;;;;;;5038078;28;20049;-84
2021/07/25 05:56:59;;;;;;;15.47;10.50;;;;;;;;;;5040825;28;20049;-82
2021/07/25 05:59:26;;;;;;;12.90;9.80;;;;;;;;;;5032456;28;20756;-83
2021/07/25 06:01:52;;;;;;;11.70;9.60;;;;;;;;;;5036209;28;20022;-83
2021/07/25 06:04:17;;;;;;;11.32;10.00;;;;;;;;;;5035032;28;20029;-83
2021/07/25 06:06:45;;;;;;;13.25;9.60;;;;;;;;;;5036376;28;20402;-83
2021/07/25 06:09:10;;;;;;;12.05;8.95;;;;;;;;;;5031223;28;20025;-83
2021/07/25 06:11:35;;;;;;;10.77;9.68;;;;;;;;;;5033657;28;20079;-83
2021/07/25 06:14:02;;;;;;;11.80;9.63;;;;;;;;;;5033604;28;20455;-83
2021/07/25 06:16:28;;;;;;;10.98;9.35;;;;;;;;;;5035442;28;20024;-83
2021/07/25 06:18:55;;;;;;;9.57;8.38;;;;;;;;;;5031306;28;20017;-83
2021/07/25 06:21:21;;;;;;;11.18;9.00;;;;;;;;;;5033706;28;20025;-82
2021/07/25 06:23:48;;;;;;;10.48;9.13;;;;;;;;;;5035754;28;20029;-82
2021/07/25 06:26:16;;;;;;;10.48;8.10;;;;;;;;;;5022192;28;20128;-82
2021/07/25 06:28:42;;;;;;;11.48;8.27;;;;;;;;;;5030838;28;20024;-82
2021/07/25 06:31:07;;;;;;;10.38;7.45;;;;;;;;;;5036508;28;20013;-81
2021/07/25 06:33:35;;;;;;;12.07;7.00;;;;;;;;;;5035112;28;20089;-82
2021/07/25 06:36:04;;;;;;;10.75;6.95;;;;;;;;;;5034047;28;20833;-82
2021/07/25 06:38:29;;;;;;;10.05;7.03;;;;;;;;;;5036077;28;20079;-82
2021/07/25 06:40:57;;;;;;;8.77;6.57;;;;;;;;;;5035787;28;20021;-82
2021/07/25 06:43:25;;;;;;;9.98;6.03;;;;;;;;;;5036004;28;20280;-83
2021/07/25 06:45:51;;;;;;;9.38;5.75;;;;;;;;;;5035305;28;20031;-82
2021/07/25 06:48:17;;;;;;;11.13;5.67;;;;;;;;;;5035864;28;20116;-82
2021/07/25 06:50:46;;;;;;;9.82;5.20;;;;;;;;;;5035876;28;20327;-82
2021/07/25 06:53:11;;;;;;;10.23;4.55;;;;;;;;;;5034365;28;20109;-79
2021/07/25 06:55:39;;;;;;;7.07;4.97;;;;;;;;;;5017304;28;20101;-79
2021/07/25 06:58:04;;;;;;;10.68;5.30;;;;;;;;;;5015396;28;20281;-79
2021/07/25 07:00:32;;;;;;;7.57;4.83;;;;;;;;;;5015825;28;20053;-76
2021/07/25 07:03:02;;;;;;;6.53;5.43;;;;;;;;;;5015369;28;20332;-75
2021/07/25 07:05:30;;;;;;;7.90;5.35;;;;;;;;;;5015417;28;20101;-75
2021/07/25 07:07:56;;;;;;;6.55;5.28;;;;;;;;;;5015739;28;20021;-81
2021/07/25 07:10:23;;;;;;;11.75;5.57;;;;;;;;;;5015449;28;20061;-79
2021/07/25 07:12:49;;;;;;;9.57;5.07;;;;;;;;;;5034031;28;20067;-82
2021/07/25 07:15:15;;;;;;;5.97;4.78;;;;;;;;;;5030563;28;20017;-80
2021/07/25 07:17:40;;;;;;;6.93;5.00;;;;;;;;;;5034883;28;20017;-80
2021/07/25 07:20:06;;;;;;;8.18;4.85;;;;;;;;;;5033831;28;20017;-80
2021/07/25 07:22:34;;;;;;;10.07;4.93;;;;;;;;;;5034926;28;20547;-80
2021/07/25 07:24:59;;;;;;;6.85;4.85;;;;;;;;;;5030675;28;20375;-80
2021/07/25 07:27:27;;;;;;;7.97;5.07;;;;;;;;;;5032209;28;20022;-80
2021/07/25 07:29:55;;;;;;;7.95;5.43;;;;;;;;;;5034016;28;20014;-80
2021/07/25 07:32:21;;;;;;;10.82;5.95;;;;;;;;;;5034207;28;20025;-80
2021/07/25 07:34:48;;;;;;;6.68;4.85;;;;;;;;;;5033344;28;20116;-81
2021/07/25 07:37:13;;;;;;;7.50;4.70;;;;;;;;;;5024875;28;20021;-80
2021/07/25 07:39:40;;;;;;;8.87;5.03;;;;;;;;;;5014871;28;20109;-80
2021/07/25 07:42:06;;;;;;;6.20;4.80;;;;;;;;;;5021095;28;20304;-80
2021/07/25 07:44:32;;;;;;;7.80;4.97;;;;;;;;;;5034266;28;20036;-80
2021/07/25 07:46:57;;;;;;;10.02;4.50;;;;;;;;;;5027705;28;20021;-81
2021/07/25 07:49:27;;;;;;;9.38;4.78;;;;;;;;;;5034943;28;20025;-77
2021/07/25 07:51:53;;;;;;;7.03;4.65;;;;;;;;;;5035122;28;20037;-79
2021/07/25 07:54:18;;;;;;;7.57;4.57;;;;;;;;;;5034630;28;20025;-79
2021/07/25 07:56:43;;;;;;;7.50;4.32;;;;;;;;;;5033832;28;20040;-79
2021/07/25 07:59:11;;;;;;;6.38;4.45;;;;;;;;;;5034620;28;20355;-79
2021/07/25 08:01:36;;;;;;;6.55;4.38;;;;;;;;;;5033711;28;20418;-79
2021/07/25 08:04:02;;;;;;;5.47;4.18;;;;;;;;;;5031830;28;20096;-79
2021/07/25 08:06:32;;;;;;;7.20;4.15;;;;;;;;;;5034680;28;20021;-79
2021/07/25 08:08:59;;;;;;;10.05;4.50;;;;;;;;;;5034396;28;20471;-80
2021/07/25 08:11:27;;;;;;;5.95;4.88;;;;;;;;;;5034930;28;20026;-81
2021/07/25 08:13:52;;;;;;;6.47;4.32;;;;;;;;;;5021544;28;20021;-80
2021/07/25 08:16:17;;;;;;;6.97;5.60;;;;;;;;;;5014470;28;20013;-78
2021/07/25 08:18:45;;;;;;;10.27;8.10;;;;;;;;;;5017280;28;20283;-78
2021/07/25 08:21:12;;;;;;;7.50;4.70;;;;;;;;;;5034322;28;20260;-78
2021/07/25 08:23:37;;;;;;;7.70;4.28;;;;;;;;;;5033099;28;20025;-78
2021/07/25 08:26:02;;;;;;;5.38;3.90;;;;;;;;;;5030478;28;20367;-78
2021/07/25 08:28:28;;;;;;;5.22;3.80;;;;;;;;;;5033470;28;20021;-78
2021/07/25 08:30:54;;;;;;;10.70;4.20;;;;;;;;;;5033562;28;20592;-79
2021/07/25 08:33:19;;;;;;;6.28;3.97;;;;;;;;;;5033714;28;20029;-79
2021/07/25 08:35:45;;;;;;;6.70;4.20;;;;;;;;;;5032887;28;20091;-79
2021/07/25 08:38:13;;;;;;;6.37;3.90;;;;;;;;;;5033653;28;20017;-79
2021/07/25 08:40:39;;;;;;;5.10;3.63;;;;;;;;;;5017259;28;20351;-80
2021/07/25 08:43:04;;;;;;;8.13;3.60;;;;;;;;;;5020899;28;20105;-81
2021/07/25 08:45:30;;;;;;;6.20;4.73;;;;;;;;;;5033906;28;20021;-82
2021/07/25 08:48:14;;;;;;;9.27;5.88;;;;;;;;;;5029892;28;20626;-79
2021/07/25 08:50:49;;;;;;;7.47;3.95;;;;;;;;;;5016331;28;20519;-78
2021/07/25 08:53:18;;;;;;;8.10;4.80;;;;;;;;;;5035446;28;20029;-78
2021/07/25 08:55:46;;;;;;;6.13;3.97;;;;;;;;;;5028890;28;20377;-78
2021/07/25 08:58:14;;;;;;;6.00;3.88;;;;;;;;;;5033338;28;20014;-78
2021/07/25 09:00:40;;;;;;;8.75;3.90;;;;;;;;;;5033369;28;20439;-78
2021/07/25 09:03:06;;;;;;;6.10;3.90;;;;;;;;;;5026584;28;20096;-78
2021/07/25 09:05:31;;;;;;;6.97;3.90;;;;;;;;;;5014657;28;20098;-78
2021/07/25 09:07:57;;;;;;;4.97;3.03;;;;;;;;;;5013405;28;20415;-79
2021/07/25 09:10:25;;;;;;;5.60;4.18;;;;;;;;;;5013072;28;20034;-78
2021/07/25 09:12:51;;;;;;;9.88;4.60;;;;;;;;;;5012846;28;20026;-78
2021/07/25 09:15:21;;;;;;;6.45;4.47;;;;;;;;;;5016237;28;20033;-78
2021/07/25 09:17:48;;;;;;;5.05;3.78;;;;;;;;;;5030094;28;20434;-79
2021/07/25 09:20:15;;;;;;;8.02;4.65;;;;;;;;;;5032424;28;20040;-79
2021/07/25 09:22:49;;;;;;;8.43;4.18;;;;;;;;;;5023121;28;20025;-79
2021/07/25 09:25:14;;;;;;;8.90;3.78;;;;;;;;;;5013467;28;20022;-79
2021/07/25 09:27:42;;;;;;;5.70;3.50;;;;;;;;;;5015277;28;20052;-79
2021/07/25 09:30:17;;;;;;;7.72;2.90;;;;;;;;;;5012457;28;20022;-78
2021/07/25 09:32:43;;;;;;;7.70;3.70;;;;;;;;;;5013214;28;20022;-79
2021/07/25 09:35:22;;;;;;;4.20;3.20;;;;;;;;;;5012844;28;20103;-78
2021/07/25 09:37:51;;;;;;;5.25;3.58;;;;;;;;;;5017130;28;20061;-78
2021/07/25 09:40:24;;;;;;;5.07;3.50;;;;;;;;;;5032384;28;20041;-78
2021/07/25 09:42:49;;;;;;;5.28;3.20;;;;;;;;;;5032838;28;20108;-78
2021/07/25 09:45:15;;;;;;;6.55;3.22;;;;;;;;;;5014291;28;20105;-78
2021/07/25 09:47:42;;;;;;;8.20;3.72;;;;;;;;;;5013215;28;20026;-78
2021/07/25 09:50:08;;;;;;;5.22;3.20;;;;;;;;;;5012757;28;20030;-78
2021/07/25 09:52:41;;;;;;;4.60;3.03;;;;;;;;;;5013179;28;20100;-78
2021/07/25 09:55:08;;;;;;;5.97;3.00;;;;;;;;;;5023736;28;20402;-78
2021/07/25 09:57:35;;;;;;;6.53;3.17;;;;;;;;;;5032847;28;20061;-78
2021/07/25 10:00:08;;;;;;;5.32;3.00;;;;;;;;;;5030817;28;20013;-78
2021/07/25 10:02:38;;;;;;;8.05;3.05;;;;;;;;;;5032652;28;20546;-78
2021/07/25 10:05:12;;;;;;;5.78;3.20;;;;;;;;;;5025193;28;20025;-79
2021/07/25 10:07:38;;;;;;;8.02;3.30;;;;;;;;;;5025281;28;20460;-78
2021/07/25 10:10:04;;;;;;;3.33;2.08;;;;;;;;;;5030843;28;20029;-78
2021/07/25 10:12:32;;;;;;;5.10;2.20;;;;;;;;;;5028686;28;20022;-76
2021/07/25 10:14:59;;;;;;;2.08;1.77;;;;;;;;;;5032323;28;20455;-76
2021/07/25 10:17:25;;;;;;;2.85;2.08;;;;;;;;;;5026494;28;20084;-76
2021/07/25 10:19:51;;;;;;;2.85;1.80;;;;;;;;;;5031428;28;20021;-76
2021/07/25 10:22:17;;;;;;;4.03;1.60;;;;;;;;;;5028852;28;20326;-76
2021/07/25 10:24:49;;;;;;;2.72;1.90;;;;;;;;;;5021708;28;20082;-76
2021/07/25 10:27:15;;;;;;;4.80;2.05;;;;;;;;;;5033465;28;20457;-76
2021/07/25 10:29:40;;;;;;;6.07;2.20;;;;;;;;;;5036216;28;20115;-77
2021/07/25 10:32:09;;;;;;;4.50;2.00;;;;;;;;;;5035768;28;20021;-76
2021/07/25 10:34:38;;;;;;;3.85;1.90;;;;;;;;;;5035867;28;20120;-77
2021/07/25 10:37:03;;;;;;;4.97;2.03;;;;;;;;;;5035846;28;20033;-77
2021/07/25 10:39:33;;;;;;;2.53;1.77;;;;;;;;;;5036138;28;20018;-77
2021/07/25 10:41:59;;;;;;;2.63;1.38;;;;;;;;;;5028951;28;20531;-77
2021/07/25 10:44:28;;;;;;;5.90;2.00;;;;;;;;;;5035113;28;20451;-79
2021/07/25 10:47:12;;;;;;;4.15;1.60;;;;;;;;;;5035302;28;20057;-77
2021/07/25 10:49:37;;;;;;;2.30;1.60;;;;;;;;;;5034871;28;20041;-75
2021/07/25 10:52:03;;;;;;;3.40;1.80;;;;;;;;;;5036168;28;20030;-78
2021/07/25 10:54:29;;;;;;;4.32;1.77;;;;;;;;;;5034501;28;20018;-81
2021/07/25 10:57:04;;;;;;;3.00;1.75;;;;;;;;;;5034719;28;20033;-77
2021/07/25 10:59:40;;;;;;;5.47;2.05;;;;;;;;;;5032300;28;20021;-80
2021/07/25 11:02:08;;;;;;;4.65;2.00;;;;;;;;;;5018126;28;20088;-79
2021/07/25 11:04:52;;;;;;;3.70;1.65;;;;;;;;;;5035620;28;20025;-82
2021/07/25 11:07:26;;;;;;;4.60;2.13;;;;;;;;;;5032965;28;20306;-79
2021/07/25 11:09:54;;;;;;;2.95;1.60;;;;;;;;;;5033587;28;20029;-83
2021/07/25 11:12:19;;;;;;;4.13;1.60;;;;;;;;;;5033045;28;20104;-82
2021/07/25 11:14:58;;;;;;;2.57;1.50;;;;;;;;;;5021982;28;20476;-79
2021/07/25 11:17:46;;;;;;;2.30;1.60;;;;;;;;;;5033844;28;20263;-80
2021/07/25 11:20:57;;;;;;;3.90;1.40;;;;;;;;;;5019019;28;20061;-79
2021/07/25 11:23:22;;;;;;;4.35;1.40;;;;;;;;;;5016344;28;20021;-82
2021/07/25 11:25:53;;;;;;;4.50;1.33;;;;;;;;;;5053101;28;20487;-80
2021/07/25 11:28:41;;;;;;;3.53;1.40;;;;;;;;;;5042396;28;20037;-79
2021/07/25 11:31:07;;;;;;;2.03;1.10;;;;;;;;;;5035262;28;20017;-79
2021/07/25 11:33:44;;;;;;;3.25;1.48;;;;;;;;;;5025541;28;20053;-78
2021/07/25 11:36:13;;;;;;;5.05;1.70;;;;;;;;;;5024023;28;20097;-79
2021/07/25 11:38:39;;;;;;;2.35;1.38;;;;;;;;;;5034343;28;20101;-79
2021/07/25 11:41:08;;;;;;;4.25;1.63;;;;;;;;;;5034390;28;20092;-79
2021/07/25 11:43:49;;;;;;;1.48;1.02;;;;;;;;;;5032196;28;20083;-80
2021/07/25 11:46:30;;;;;;;2.20;1.00;;;;;;;;;;5032746;28;20092;-80
2021/07/25 11:49:04;;;;;;;2.25;1.50;;;;;;;;;;5035166;28;20021;-79
2021/07/25 11:51:29;;;;;;;2.05;1.10;;;;;;;;;;5028995;28;20017;-80
2021/07/25 11:53:57;;;;;;;2.40;1.40;;;;;;;;;;5034048;28;20491;-80
2021/07/25 11:56:27;;;;;;;4.40;1.33;;;;;;;;;;5034274;28;20825;-80
2021/07/25 11:59:01;;;;;;;1.80;1.10;;;;;;;;;;5034360;28;20091;-80
2021/07/25 12:01:26;;;;;;;2.13;1.40;;;;;;;;;;5034543;28;20098;-80
2021/07/25 12:03:56;;;;;;;2.53;1.80;;;;;;;;;;5021845;28;20465;-80
2021/07/25 12:06:21;;;;;;;1.77;1.30;;;;;;;;;;5014630;28;20260;-80
2021/07/25 12:09:02;;;;;;;1.73;1.10;;;;;;;;;;5029556;28;20037;-80
2021/07/25 12:11:29;;;;;;;3.45;1.33;;;;;;;;;;5023724;28;20021;-80
2021/07/25 12:13:55;;;;;;;2.30;1.02;;;;;;;;;;5033758;28;20018;-81
2021/07/25 12:16:20;;;;;;;2.20;1.30;;;;;;;;;;5032636;28;20025;-80
2021/07/25 12:18:46;;;;;;;1.70;1.00;;;;;;;;;;5042676;28;20359;-80
2021/07/25 12:21:34;;;;;;;2.20;1.10;;;;;;;;;;5043074;28;20112;-79
2021/07/25 12:24:01;;;;;;;1.48;0.95;;;;;;;;;;5030569;28;20009;-80
2021/07/25 12:26:41;;;;;;;3.55;1.70;;;;;;;;;;5026292;28;20021;-82
2021/07/25 12:29:25;;;;;;;2.63;1.50;;;;;;;;;;5027117;28;20031;-80
2021/07/25 12:31:55;;;;;;;3.95;1.30;;;;;;;;;;5018037;28;20018;-81
2021/07/25 12:34:23;;;;;;;3.75;1.35;;;;;;;;;;5013809;28;20065;-80
2021/07/25 12:36:48;;;;;;;1.23;0.82;;;;;;;;;;5026799;28;20043;-80
2021/07/25 12:39:41;;;;;;;1.77;1.17;;;;;;;;;;5033887;28;20022;-76
2021/07/25 12:42:24;;;;;;;1.20;0.90;;;;;;;;;;5039698;28;20044;-80
2021/07/25 12:44:50;;;;;;;;;;;;;;;;;;5044727;28;20013;-80
2021/07/25 12:47:27;;;;;;;2.10;1.23;;;;;;;;;;5043002;28;19992;-83
2021/07/25 12:50:20;;;;;;;1.67;1.00;;;;;;;;;;5035170;28;20022;-81
2021/07/25 12:52:48;;;;;;;1.40;1.10;;;;;;;;;;5033819;28;20456;-83
2021/07/25 12:55:14;;;;;;;3.03;0.98;;;;;;;;;;5029001;28;20143;-80
2021/07/25 12:57:39;;;;;;;2.33;1.10;;;;;;;;;;5029952;28;20104;-80
2021/07/25 13:00:07;;;;;;;2.03;1.20;;;;;;;;;;5025241;28;20352;-80
2021/07/25 13:05:21;;;;;;;1.77;1.10;;;;;;;;;;5028720;28;20570;-79
2021/07/25 13:07:49;;;;;;;1.30;0.98;;;;;;;;;;5028578;28;20481;-79
2021/07/25 13:10:14;;;;;;;4.05;1.10;;;;;;;;;;5031602;28;20021;-79
2021/07/25 13:12:42;;;;;;;1.73;1.20;;;;;;;;;;5031822;28;20018;-79
2021/07/25 13:15:12;;;;;;;2.10;1.27;;;;;;;;;;5029487;28;20318;-79
2021/07/25 13:17:37;;;;;;;2.15;1.20;;;;;;;;;;5029946;28;20465;-79
2021/07/25 13:20:03;;;;;;;2.93;1.10;;;;;;;;;;5031277;28;20032;-79
2021/07/25 13:22:28;;;;;;;2.92;1.10;;;;;;;;;;5029957;28;20017;-80
2021/07/25 13:24:54;;;;;;;1.50;1.07;;;;;;;;;;5032253;28;20071;-79
2021/07/25 13:27:26;;;;;;;2.22;1.23;;;;;;;;;;5025690;28;20411;-79
2021/07/25 13:30:08;;;;;;;3.60;1.20;;;;;;;;;;5029965;28;20029;-79
2021/07/25 13:32:34;;;;;;;1.80;1.30;;;;;;;;;;5029156;28;20021;-79
2021/07/25 13:34:59;;;;;;;1.70;1.30;;;;;;;;;;5028057;28;20575;-79
2021/07/25 13:37:24;;;;;;;3.03;1.40;;;;;;;;;;5023205;28;20337;-80
2021/07/25 13:39:52;;;;;;;4.47;1.13;;;;;;;;;;5018182;28;20013;-80
2021/07/25 13:42:17;;;;;;;3.72;1.30;;;;;;;;;;5026747;28;20026;-82
2021/07/25 13:44:45;;;;;;;2.63;1.20;;;;;;;;;;5018356;28;20040;-81
2021/07/25 13:47:12;;;;;;;3.50;1.30;;;;;;;;;;5020653;28;20013;-80
2021/07/25 13:49:37;;;;;;;3.60;1.30;;;;;;;;;;5031980;28;20029;-80
2021/07/25 13:52:03;;;;;;;2.57;1.30;;;;;;;;;;5033081;28;20021;-81
2021/07/25 13:54:31;;;;;;;2.30;1.25;;;;;;;;;;5033177;28;20026;-77
2021/07/25 13:56:58;;;;;;;2.65;1.50;;;;;;;;;;5023162;28;20083;-76
2021/07/25 13:59:26;;;;;;;2.80;1.08;;;;;;;;;;5013425;28;20033;-77
2021/07/25 14:01:53;;;;;;;1.70;1.30;;;;;;;;;;5028759;28;20118;-80
2021/07/25 14:04:19;;;;;;;3.33;1.17;;;;;;;;;;5036945;28;20037;-81
2021/07/25 14:06:44;;;;;;;2.63;1.30;;;;;;;;;;5029541;28;20018;-79
2021/07/25 14:09:14;;;;;;;4.27;1.20;;;;;;;;;;5017202;28;20022;-80
2021/07/25 14:11:43;;;;;;;1.80;1.60;;;;;;;;;;5017121;28;20021;-80
2021/07/25 14:14:08;;;;;;;1.85;1.33;;;;;;;;;;5018068;28;20033;-81
2021/07/25 14:16:34;;;;;;;1.80;1.50;;;;;;;;;;5036631;28;20336;-81
2021/07/25 14:19:01;;;;;;;2.83;1.50;;;;;;;;;;5036314;28;20147;-81
2021/07/25 14:21:29;;;;;;;2.85;1.10;;;;;;;;;;5036807;28;20611;-81
2021/07/25 14:23:55;;;;;;;3.47;1.23;;;;;;;;;;5027780;28;20080;-81
2021/07/25 14:26:21;;;;;;;7.10;1.30;;;;;;;;;;5031399;28;20109;-82
2021/07/25 14:28:46;;;;;;;2.83;1.20;;;;;;;;;;5024409;28;20437;-83
2021/07/25 14:31:12;;;;;;;2.35;1.38;;;;;;;;;;5035657;28;20021;-78
2021/07/25 14:33:37;;;;;;;1.77;1.20;;;;;;;;;;5036168;28;20482;-81
2021/07/25 14:36:05;;;;;;;14.90;1.58;;;;;;;;;;5036094;28;20260;-81
2021/07/25 14:38:33;;;;;;;11.18;1.90;;;;;;;;;;5035815;28;20025;-78
2021/07/25 14:40:58;;;;;;;2.28;1.70;;;;;;;;;;5033824;28;20029;-77